Mermaid Express — H9PV — position and weather

sailwx.info

Track history (hours):
 
Tides and Currents Weather Stations Pressure Air Temp Water Temp Dewpoint Dewpoint Depression Visibility Wind Speed Wind Dir Waves Ship Positions

Mermaid Express

Last reported at 2014-Oct-13 18:08 UTC. Time now 2014-Oct-25 21:24 UTC.
Position N 50°19' W 001°22'.
Warning: this ship's position is 12 days out of date.

Length 179 m; draft 10.4 m.

Type: Tanker. MMSI: 352866000.

Date/timePositionNaut miles runAvg speedWind from/ knotsBaromVisibWave heightAir tempDewpointWater temp
2014-Oct-13 18:08N 50°19' W 001°22'2113.1
2014-Oct-13 16:32N 50°34' W 000°59'9 8.9
2014-Oct-13 15:33N 50°43' W 000°60'9 9.5
2014-Oct-13 14:33N 50°46' W 001°14'6 5.8
2014-Oct-13 13:34N 50°50' W 001°20'0 0.1
2014-Oct-13 11:34N 50°50' W 001°20'0 0.0
2014-Oct-13 10:34N 50°50' W 001°20'0 0.0
2014-Oct-13 09:31N 50°50' W 001°20'0 0.0
2014-Oct-13 08:34N 50°50' W 001°20'0 0.0
2014-Oct-13 07:34N 50°50' W 001°20'0 0.0
2014-Oct-13 06:31N 50°50' W 001°20'0 0.0
2014-Oct-13 05:34N 50°50' W 001°20'0 0.0
2014-Oct-13 04:31N 50°50' W 001°20'0 0.0
2014-Oct-13 03:31N 50°50' W 001°20'0 0.0
2014-Oct-13 02:31N 50°50' W 001°20'0 0.0
2014-Oct-13 01:34N 50°50' W 001°20'0 0.0
2014-Oct-13 00:31N 50°50' W 001°20'0 0.0
2014-Oct-12 23:34N 50°50' W 001°20'0 0.0
2014-Oct-12 22:31N 50°50' W 001°20'0 0.0
2014-Oct-12 21:31N 50°50' W 001°20'0 0.0
2014-Oct-12 20:31N 50°50' W 001°20'0 0.0
2014-Oct-12 19:31N 50°50' W 001°20'0 0.0
2014-Oct-12 18:31N 50°50' W 001°20'0 0.0
2014-Oct-12 12:27N 50°50' W 001°20'0 0.0
2014-Oct-12 11:21N 50°50' W 001°20'0 0.0
2014-Oct-12 09:33N 50°50' W 001°20'0 0.0
2014-Oct-12 08:15N 50°50' W 001°20'0 0.0
2014-Oct-12 06:33N 50°50' W 001°20'0 0.0
2014-Oct-12 05:24N 50°50' W 001°20'0 0.0
2014-Oct-12 04:33N 50°50' W 001°20'0 0.0
2014-Oct-12 03:18N 50°50' W 001°20'0 0.0
2014-Oct-12 02:33N 50°50' W 001°20'0 0.0
2014-Oct-12 01:30N 50°50' W 001°20'0 0.0
2014-Oct-12 00:33N 50°50' W 001°20'0 0.0
2014-Oct-11 23:33N 50°50' W 001°20'0 0.0
2014-Oct-11 22:30N 50°50' W 001°20'0 0.0
2014-Oct-11 20:33N 50°50' W 001°20'0 0.0
2014-Oct-11 19:21N 50°50' W 001°20'0 0.0
2014-Oct-11 18:33N 50°50' W 001°20'3 2.5
2014-Oct-11 17:34N 50°48' W 001°17'8 8.4
2014-Oct-11 16:33N 50°45' W 001°05'8 7.7
2014-Oct-11 15:33N 50°38' W 000°58'2 2.4
2014-Oct-11 14:33N 50°36' W 000°59'4 4.3
2014-Oct-11 13:33N 50°32' W 001°00'7 6.4
2014-Oct-11 12:25N 50°25' W 001°01'  
2014-Oct-04 23:32N 45°60' W 051°13'  
Track history (hours):
 
Tides and Currents Weather Stations Pressure Air Temp Water Temp Dewpoint Dewpoint Depression Visibility Wind Speed Wind Dir Waves Ship Positions

Mermaid Express

Last reported at 2014-Oct-13 18:08 UTC. Time now 2014-Oct-25 21:24 UTC.
Position N 50°19' W 001°22'.
Warning: this ship's position is 12 days out of date.

Length 179 m; draft 10.4 m.

Type: Tanker. MMSI: 352866000.

Date/timePositionNaut miles runAvg speedWind from/ knotsBaromVisibWave heightAir tempDewpointWater temp
2014-Oct-13 18:08N 50°19' W 001°22'2113.1
2014-Oct-13 16:32N 50°34' W 000°59'9 8.9
2014-Oct-13 15:33N 50°43' W 000°60'9 9.5
2014-Oct-13 14:33N 50°46' W 001°14'6 5.8
2014-Oct-13 13:34N 50°50' W 001°20'0 0.1
2014-Oct-13 11:34N 50°50' W 001°20'0 0.0
2014-Oct-13 10:34N 50°50' W 001°20'0 0.0
2014-Oct-13 09:31N 50°50' W 001°20'0 0.0
2014-Oct-13 08:34N 50°50' W 001°20'0 0.0
2014-Oct-13 07:34N 50°50' W 001°20'0 0.0
2014-Oct-13 06:31N 50°50' W 001°20'0 0.0
2014-Oct-13 05:34N 50°50' W 001°20'0 0.0
2014-Oct-13 04:31N 50°50' W 001°20'0 0.0
2014-Oct-13 03:31N 50°50' W 001°20'0 0.0
2014-Oct-13 02:31N 50°50' W 001°20'0 0.0
2014-Oct-13 01:34N 50°50' W 001°20'0 0.0
2014-Oct-13 00:31N 50°50' W 001°20'0 0.0
2014-Oct-12 23:34N 50°50' W 001°20'0 0.0
2014-Oct-12 22:31N 50°50' W 001°20'0 0.0
2014-Oct-12 21:31N 50°50' W 001°20'0 0.0
2014-Oct-12 20:31N 50°50' W 001°20'0 0.0
2014-Oct-12 19:31N 50°50' W 001°20'0 0.0
2014-Oct-12 18:31N 50°50' W 001°20'0 0.0
2014-Oct-12 12:27N 50°50' W 001°20'0 0.0
2014-Oct-12 11:21N 50°50' W 001°20'0 0.0
2014-Oct-12 09:33N 50°50' W 001°20'0 0.0
2014-Oct-12 08:15N 50°50' W 001°20'0 0.0
2014-Oct-12 06:33N 50°50' W 001°20'0 0.0
2014-Oct-12 05:24N 50°50' W 001°20'0 0.0
2014-Oct-12 04:33N 50°50' W 001°20'0 0.0
2014-Oct-12 03:18N 50°50' W 001°20'0 0.0
2014-Oct-12 02:33N 50°50' W 001°20'0 0.0
2014-Oct-12 01:30N 50°50' W 001°20'0 0.0
2014-Oct-12 00:33N 50°50' W 001°20'0 0.0
2014-Oct-11 23:33N 50°50' W 001°20'0 0.0
2014-Oct-11 22:30N 50°50' W 001°20'0 0.0
2014-Oct-11 20:33N 50°50' W 001°20'0 0.0
2014-Oct-11 19:21N 50°50' W 001°20'0 0.0
2014-Oct-11 18:33N 50°50' W 001°20'3 2.5
2014-Oct-11 17:34N 50°48' W 001°17'8 8.4
2014-Oct-11 16:33N 50°45' W 001°05'8 7.7
2014-Oct-11 15:33N 50°38' W 000°58'2 2.4
2014-Oct-11 14:33N 50°36' W 000°59'4 4.3
2014-Oct-11 13:33N 50°32' W 001°00'7 6.4
2014-Oct-11 12:25N 50°25' W 001°01'  
2014-Oct-04 23:32N 45°60' W 051°13'  

Dump ship's entire track history